Time;durP1;ratioP1;P1;durP2;ratioP2;P2;SDS_P1;SDS_P2;PMS_P1;PMS_P2;Temp;Humidity;BMP_temperature;BMP_pressure;BME280_temperature;BME280_humidity;BME280_pressure;Samples;Min_cycle;Max_cycle;Signal;HPM_P1;HPM_P2
2023/01/13 00:00:30;;;;;;;2.47;1.27;;;;;;;2.20;100.00;100304.66;5991393;23;20022;-90
2023/01/13 00:02:56;;;;;;;2.10;1.63;;;;;;;2.12;100.00;100297.53;5991606;23;20093;-91
2023/01/13 00:05:21;;;;;;;1.35;0.90;;;;;;;2.08;100.00;100291.22;5992117;23;20006;-91
2023/01/13 00:07:48;;;;;;;2.03;1.90;;;;;;;2.09;100.00;100296.31;5990823;23;20022;-92
2023/01/13 00:10:14;;;;;;;1.70;0.85;;;;;;;2.04;100.00;100288.44;5990834;23;20003;-92
2023/01/13 00:12:41;;;;;;;1.63;1.52;;;;;;;1.92;100.00;100271.50;6015391;23;20017;-92
2023/01/13 00:15:07;;;;;;;2.70;1.10;;;;;;;1.84;100.00;100265.16;6014612;23;20022;-91
2023/01/13 00:17:33;;;;;;;0.40;0.40;;;;;;;1.85;100.00;100269.47;5993413;23;20482;-90
2023/01/13 00:19:59;;;;;;;0.47;0.47;;;;;;;1.89;100.00;100283.97;5991302;23;20090;-91
2023/01/13 00:22:24;;;;;;;0.88;0.88;;;;;;;1.85;100.00;100272.19;5991225;23;20019;-91
2023/01/13 00:24:50;;;;;;;0.35;0.35;;;;;;;1.97;100.00;100291.09;5991846;23;20015;-92
2023/01/13 00:27:16;;;;;;;0.88;0.88;;;;;;;1.95;100.00;100278.94;5990816;23;20459;-91
2023/01/13 00:29:42;;;;;;;1.10;1.10;;;;;;;1.71;100.00;100242.72;5993098;23;20042;-91
2023/01/13 00:32:07;;;;;;;1.38;1.23;;;;;;;1.83;100.00;100258.88;5989502;23;20015;-92
2023/01/13 00:34:33;;;;;;;0.93;0.93;;;;;;;1.85;100.00;100267.53;5992030;23;20022;-91
2023/01/13 00:36:59;;;;;;;0.65;0.65;;;;;;;1.89;100.00;100267.56;5992791;23;20010;-91
2023/01/13 00:39:24;;;;;;;0.80;0.77;;;;;;;1.99;100.00;100266.09;5991716;23;20101;-91
2023/01/13 00:44:34;;;;;;;2.90;1.85;;;;;;;2.06;100.00;100261.50;6016422;23;20015;-91
2023/01/13 00:47:00;;;;;;;1.77;1.67;;;;;;;1.93;100.00;100240.25;5992174;23;20006;-91
2023/01/13 00:49:25;;;;;;;1.80;1.65;;;;;;;1.94;100.00;100241.81;5991483;23;20046;-90
2023/01/13 00:51:51;;;;;;;0.30;0.30;;;;;;;2.15;100.00;100274.88;5990051;23;20030;-91
2023/01/13 00:54:17;;;;;;;0.57;0.57;;;;;;;2.21;100.00;100276.13;5991519;23;20038;-91
2023/01/13 00:56:43;;;;;;;1.05;0.75;;;;;;;2.22;100.00;100264.03;5988689;23;20018;-91
2023/01/13 00:59:12;;;;;;;0.45;0.45;;;;;;;2.22;100.00;100274.97;6013680;23;20027;-92
2023/01/13 01:01:38;;;;;;;2.38;0.90;;;;;;;2.07;100.00;100251.31;5990750;23;20044;-91
2023/01/13 01:04:04;;;;;;;0.15;0.15;;;;;;;2.22;100.00;100266.75;5989701;23;20511;-91
2023/01/13 01:06:30;;;;;;;1.02;1.00;;;;;;;2.04;100.00;100241.94;5991701;23;20019;-92
2023/01/13 01:08:56;;;;;;;2.50;1.92;;;;;;;2.21;100.00;100270.66;5990692;23;20019;-91
2023/01/13 01:11:27;;;;;;;1.90;1.27;;;;;;;2.21;100.00;100273.38;5991215;23;20340;-93
2023/01/13 01:13:54;;;;;;;0.15;0.15;;;;;;;2.21;100.00;100267.91;5991536;23;20023;-92
2023/01/13 01:16:22;;;;;;;1.48;1.38;;;;;;;2.18;100.00;100271.41;5990737;23;20038;-91
2023/01/13 01:18:49;;;;;;;0.70;0.65;;;;;;;2.18;100.00;100249.50;5991667;23;20050;-92
2023/01/13 01:21:16;;;;;;;1.05;1.05;;;;;;;2.16;100.00;100260.03;5990248;23;20433;-92
2023/01/13 01:23:42;;;;;;;0.80;0.80;;;;;;;2.13;100.00;100256.09;5990461;23;20023;-93
2023/01/13 01:26:17;;;;;;;2.33;1.33;;;;;;;2.12;100.00;100253.72;5991578;23;20019;-91
2023/01/13 01:28:43;;;;;;;0.88;0.88;;;;;;;2.08;100.00;100250.16;6014310;23;20022;-92
2023/01/13 01:31:13;;;;;;;0.85;0.85;;;;;;;2.10;100.00;100253.34;5991778;23;20085;-92
2023/01/13 01:33:40;;;;;;;1.67;1.58;;;;;;;2.10;100.00;100250.59;6012725;23;20019;-92
2023/01/13 01:36:09;;;;;;;0.73;0.73;;;;;;;1.92;100.00;100219.50;5991020;23;20057;-92
2023/01/13 01:38:35;;;;;;;3.00;2.20;;;;;;;2.05;100.00;100229.03;5991550;23;20030;-92
2023/01/13 01:41:01;;;;;;;0.73;0.73;;;;;;;2.05;100.00;100242.72;5992113;23;20006;-91
2023/01/13 01:43:58;;;;;;;1.90;1.23;;;;;;;1.96;100.00;100234.00;5993777;23;20230;-92
2023/01/13 01:46:25;;;;;;;1.02;1.02;;;;;;;2.01;100.00;100239.16;6017508;23;20030;-92
2023/01/13 01:48:52;;;;;;;1.38;0.68;;;;;;;1.93;100.00;100229.31;5993111;23;20022;-91
2023/01/13 01:51:18;;;;;;;1.92;1.83;;;;;;;1.99;100.00;100233.25;5992943;23;20023;-92
2023/01/13 01:53:43;;;;;;;1.48;1.38;;;;;;;1.98;100.00;100237.19;5991873;23;20502;-91
2023/01/13 01:56:09;;;;;;;1.23;0.73;;;;;;;1.86;100.00;100211.63;5993857;23;20094;-91
2023/01/13 01:58:44;;;;;;;0.30;0.30;;;;;;;1.96;100.00;100239.47;5991227;23;20074;-91
2023/01/13 02:01:11;;;;;;;2.47;1.63;;;;;;;1.95;100.00;100230.50;5993669;23;20026;-93
2023/01/13 02:03:38;;;;;;;3.08;2.88;;;;;;;1.87;100.00;100210.47;5990688;23;20357;-92
2023/01/13 02:06:05;;;;;;;1.02;0.98;;;;;;;1.94;100.00;100228.16;5993365;23;20026;-91
2023/01/13 02:08:31;;;;;;;1.13;1.08;;;;;;;1.90;100.00;100222.63;5998955;23;20081;-91
2023/01/13 02:10:57;;;;;;;1.65;1.40;;;;;;;1.91;100.00;100215.19;6020495;23;20023;-90
2023/01/13 02:13:23;;;;;;;1.73;1.63;;;;;;;1.91;100.00;100215.19;5999312;23;20018;-91
2023/01/13 02:16:07;;;;;;;1.38;0.73;;;;;;;1.88;100.00;100212.06;5998195;23;20014;-91
2023/01/13 02:18:52;;;;;;;2.53;2.33;;;;;;;1.88;100.00;100203.84;6019490;23;20019;-92
2023/01/13 02:21:34;;;;;;;0.80;0.75;;;;;;;1.82;100.00;100194.41;6015926;23;20105;-91
2023/01/13 02:27:34;;;;;;;0.10;0.10;;;;;;;1.85;100.00;100190.16;6040662;23;20038;-91
2023/01/13 02:33:19;;;;;;;3.35;1.23;;;;;;;1.86;100.00;100178.81;6020496;23;20018;-91
2023/01/13 02:35:53;;;;;;;0.77;0.77;;;;;;;1.90;100.00;100173.41;5990686;23;20510;-91
2023/01/13 02:38:24;;;;;;;1.45;1.35;;;;;;;1.93;100.00;100180.06;6015798;23;20110;-92
2023/01/13 02:40:57;;;;;;;0.77;0.77;;;;;;;1.92;100.00;100184.75;5992712;23;20102;-92
2023/01/13 02:46:30;;;;;;;1.10;0.35;;;;;;;1.92;100.00;100187.47;6019779;23;20078;-91
2023/01/13 02:49:00;;;;;;;0.80;0.80;;;;;;;1.94;100.00;100187.13;5991928;23;20081;-92
2023/01/13 02:51:28;;;;;;;3.10;2.85;;;;;;;1.87;100.00;100169.44;5991320;23;20007;-92
2023/01/13 02:54:01;;;;;;;1.40;1.27;;;;;;;1.92;100.00;100170.28;5989722;23;20023;-91
2023/01/13 02:56:27;;;;;;;0.70;0.70;;;;;;;1.95;100.00;100177.72;5992728;23;20026;-93
2023/01/13 02:58:55;;;;;;;1.30;1.17;;;;;;;1.93;100.00;100177.31;5991097;23;20030;-92
2023/01/13 03:01:21;;;;;;;0.70;0.70;;;;;;;1.93;100.00;100180.84;5991614;23;20074;-91
2023/01/13 03:03:48;;;;;;;0.77;0.77;;;;;;;1.93;100.00;100174.59;5993065;23;20190;-91
2023/01/13 03:06:20;;;;;;;0.75;0.75;;;;;;;1.81;100.00;100157.28;5992366;23;20010;-91
2023/01/13 03:09:00;;;;;;;0.85;0.82;;;;;;;1.95;100.00;100180.47;5990504;23;20518;-92
2023/01/13 03:11:30;;;;;;;0.25;0.25;;;;;;;1.96;100.00;100176.56;5991350;23;20384;-91
2023/01/13 03:14:01;;;;;;;0.35;0.35;;;;;;;1.96;100.00;100177.34;5993099;23;20025;-92
2023/01/13 03:16:32;;;;;;;2.45;1.45;;;;;;;1.97;100.00;100176.19;6016423;23;20038;-92
2023/01/13 03:19:12;;;;;;;0.57;0.57;;;;;;;1.83;100.00;100154.94;6015026;23;20023;-91
2023/01/13 03:22:10;;;;;;;1.17;0.90;;;;;;;1.90;100.00;100154.25;5992950;23;20531;-92
2023/01/13 03:24:40;;;;;;;0.70;0.70;;;;;;;1.95;100.00;100159.38;6008314;23;20018;-91
2023/01/13 03:27:39;;;;;;;1.13;1.05;;;;;;;1.97;100.00;100165.25;5988346;23;20014;-91
2023/01/13 03:30:10;;;;;;;1.67;1.58;;;;;;;1.97;100.00;100159.00;6010251;23;20054;-92
2023/01/13 03:32:40;;;;;;;0.40;0.40;;;;;;;1.94;100.00;100152.34;5991905;23;20018;-91
2023/01/13 03:35:21;;;;;;;2.05;1.90;;;;;;;1.97;100.00;100153.53;5992241;23;20050;-91
2023/01/13 03:38:13;;;;;;;1.38;1.27;;;;;;;1.97;100.00;100153.53;6015541;23;20030;-91
2023/01/13 03:40:50;;;;;;;0.70;0.30;;;;;;;1.94;100.00;100148.81;6015068;23;20058;-91
2023/01/13 03:46:14;;;;;;;1.98;1.27;;;;;;;1.90;100.00;100146.03;6019913;23;20010;-91
2023/01/13 03:48:42;;;;;;;0.95;0.95;;;;;;;1.92;100.00;100145.66;5991853;23;20014;-91
2023/01/13 03:51:11;;;;;;;0.50;0.50;;;;;;;1.81;100.00;100113.53;6014723;23;20085;-91
2023/01/13 03:53:39;;;;;;;0.55;0.52;;;;;;;1.94;100.00;100143.34;5991529;23;20018;-91
2023/01/13 03:56:11;;;;;;;0.20;0.20;;;;;;;1.96;100.00;100144.53;6014152;23;20015;-91
2023/01/13 03:58:40;;;;;;;0.05;0.05;;;;;;;1.82;100.00;100126.03;5992580;23;20325;-93
2023/01/13 04:01:11;;;;;;;2.53;2.15;;;;;;;1.95;100.00;100136.69;5991445;23;20011;-92
2023/01/13 04:03:51;;;;;;;0.80;0.80;;;;;;;1.95;100.00;100144.91;6014760;23;20026;-92
2023/01/13 04:06:24;;;;;;;30.08;2.78;;;;;;;1.94;100.00;100143.34;6014820;23;20653;-92
2023/01/13 04:08:54;;;;;;;0.85;0.85;;;;;;;1.82;100.00;100128.75;5991655;23;20007;-92
2023/01/13 04:11:43;;;;;;;1.35;1.25;;;;;;;1.91;100.00;100144.84;6015182;23;20015;-92
2023/01/13 04:14:10;;;;;;;7.72;2.05;;;;;;;1.86;100.00;100140.50;5989785;23;20503;-91
2023/01/13 04:16:36;;;;;;;0.93;0.90;;;;;;;1.93;100.00;100149.97;5991034;23;20026;-93
2023/01/13 04:19:02;;;;;;;2.38;1.35;;;;;;;1.85;100.00;100147.16;5991941;23;20064;-93
2023/01/13 04:21:28;;;;;;;0.25;0.20;;;;;;;1.82;100.00;100145.16;5990535;23;20018;-93
2023/01/13 04:23:54;;;;;;;0.45;0.45;;;;;;;1.84;100.00;100151.06;6015925;23;20011;-93
2023/01/13 04:26:22;;;;;;;1.65;1.35;;;;;;;1.75;100.00;100147.84;5990406;23;20031;-93
2023/01/13 04:28:48;;;;;;;0.30;0.30;;;;;;;1.78;100.00;100151.78;5992401;23;20023;-92
2023/01/13 04:31:13;;;;;;;1.17;1.10;;;;;;;1.63;100.00;100131.69;5991083;23;20113;-93
2023/01/13 04:33:40;;;;;;;1.30;1.08;;;;;;;1.74;100.00;100154.47;5991528;23;20090;-91
2023/01/13 04:36:06;;;;;;;4.18;0.85;;;;;;;1.68;100.00;100166.91;5991805;23;20037;-93
2023/01/13 04:38:31;;;;;;;0.22;0.22;;;;;;;1.63;100.00;100150.81;6014594;23;20007;-94
2023/01/13 04:40:57;;;;;;;0.45;0.45;;;;;;;1.50;100.00;100133.09;6014984;23;20023;-92
2023/01/13 04:43:23;;;;;;;0.50;0.50;;;;;;;1.50;100.00;100135.84;6014296;23;20313;-92
2023/01/13 04:45:48;;;;;;;1.48;1.38;;;;;;;1.55;100.00;100143.72;5991291;23;20010;-93
2023/01/13 04:48:14;;;;;;;0.65;0.65;;;;;;;1.41;100.00;100121.69;5992806;23;20170;-92
2023/01/13 04:50:40;;;;;;;0.10;0.10;;;;;;;1.36;100.00;100119.28;5992033;23;20014;-93
2023/01/13 04:53:06;;;;;;;2.30;0.82;;;;;;;1.40;100.00;100131.84;5989586;23;20352;-92
2023/01/13 04:55:32;;;;;;;0.57;0.57;;;;;;;1.55;100.00;100149.19;5991014;23;20023;-93
2023/01/13 04:58:05;;;;;;;0.35;0.35;;;;;;;1.49;100.00;100153.41;5990564;23;20447;-92
2023/01/13 05:00:31;;;;;;;;;;;;;;;1.47;100.00;100158.47;5991335;23;20014;-94
2023/01/13 05:02:58;;;;;;;0.32;0.32;;;;;;;1.42;100.00;100153.31;5992085;23;19929;-92
2023/01/13 05:05:25;;;;;;;0.55;0.55;;;;;;;1.34;100.00;100157.13;5989278;23;20074;-92
2023/01/13 05:07:50;;;;;;;3.53;0.95;;;;;;;1.32;100.00;100159.44;5992073;23;20015;-93
2023/01/13 05:10:16;;;;;;;3.80;3.10;;;;;;;1.32;100.00;100145.78;5989204;23;20444;-93
2023/01/13 05:18:11;;;;;;;19.02;1.85;;;;;;;1.26;100.00;100144.53;6015949;23;20029;-92
2023/01/13 05:20:36;;;;;;;0.45;0.45;;;;;;;1.17;100.00;100127.66;5991317;23;20089;-93
2023/01/13 05:25:47;;;;;;;1.35;1.08;;;;;;;1.19;100.00;100147.19;6017294;23;20094;-92
2023/01/13 05:28:12;;;;;;;0.50;0.50;;;;;;;1.22;100.00;100146.44;5991051;23;20018;-92
2023/01/13 05:30:42;;;;;;;0.30;0.30;;;;;;;1.24;100.00;100138.66;5991366;23;20015;-92
2023/01/13 05:33:09;;;;;;;0.10;0.10;;;;;;;1.14;100.00;100120.97;5991319;23;20007;-92
2023/01/13 05:35:39;;;;;;;0.30;0.30;;;;;;;1.29;100.00;100143.81;5989847;23;20007;-91
2023/01/13 05:38:05;;;;;;;1.15;1.13;;;;;;;1.34;100.00;100138.00;5991348;23;20460;-93
2023/01/13 05:43:20;;;;;;;1.17;1.05;;;;;;;1.34;100.00;100146.19;6017774;23;20093;-92
2023/01/13 05:45:50;;;;;;;0.30;0.30;;;;;;;1.24;100.00;100127.72;5992485;23;20283;-93
2023/01/13 05:48:17;;;;;;;0.50;0.50;;;;;;;1.34;100.00;100152.44;5987362;23;20019;-93
2023/01/13 05:50:43;;;;;;;1.25;1.15;;;;;;;1.33;100.00;100155.56;5988039;23;20014;-92
2023/01/13 05:53:09;;;;;;;0.47;0.47;;;;;;;1.32;100.00;100156.72;6011140;23;20197;-91
2023/01/13 05:55:38;;;;;;;1.80;1.02;;;;;;;1.33;100.00;100155.56;5986958;23;20015;-92
2023/01/13 05:58:04;;;;;;;0.45;0.45;;;;;;;1.31;100.00;100149.66;6010453;23;20033;-93
2023/01/13 06:00:29;;;;;;;5.05;1.85;;;;;;;1.29;100.00;100146.53;5986479;23;20343;-92
2023/01/13 06:02:55;;;;;;;0.40;0.40;;;;;;;1.24;100.00;100138.66;5988089;23;20326;-92
2023/01/13 06:05:21;;;;;;;2.22;1.17;;;;;;;1.25;100.00;100154.69;5987418;23;20058;-93
2023/01/13 06:07:46;;;;;;;0.60;0.45;;;;;;;1.23;100.00;100153.47;5986900;23;20014;-92
2023/01/13 06:10:12;;;;;;;0.80;0.80;;;;;;;1.13;100.00;100143.22;5988304;23;20059;-93
2023/01/13 06:12:38;;;;;;;1.98;1.20;;;;;;;1.19;100.00;100161.63;5986897;23;20348;-91
2023/01/13 06:15:04;;;;;;;0.98;0.95;;;;;;;1.08;100.00;100144.31;6013335;23;20105;-92
2023/01/13 06:17:30;;;;;;;2.78;1.23;;;;;;;1.15;100.00;100155.34;5988408;23;20089;-93
2023/01/13 06:19:55;;;;;;;0.47;0.47;;;;;;;1.08;100.00;100146.25;5988740;23;20514;-94
2023/01/13 06:22:24;;;;;;;0.57;0.57;;;;;;;1.12;100.00;100152.56;5990518;23;20415;-93
2023/01/13 06:24:52;;;;;;;1.48;1.38;;;;;;;0.98;100.00;100146.88;5990179;23;20019;-93
2023/01/13 06:27:19;;;;;;;0.10;0.10;;;;;;;0.90;100.00;100141.34;6014074;23;20022;-93
2023/01/13 06:29:45;;;;;;;0.90;0.90;;;;;;;0.97;100.00;100167.19;5992961;23;20007;-92
2023/01/13 06:32:34;;;;;;;2.40;0.75;;;;;;;0.66;100.00;100116.41;5993986;23;20011;-94
2023/01/13 06:35:04;;;;;;;1.65;1.08;;;;;;;0.62;100.00;100107.38;6016108;23;20023;-92
2023/01/13 06:37:30;;;;;;;3.85;1.73;;;;;;;0.68;100.00;100108.66;6016781;23;20018;-91
2023/01/13 06:39:57;;;;;;;1.85;1.42;;;;;;;0.74;100.00;100110.69;5994162;23;20021;-94
2023/01/13 06:45:09;;;;;;;1.50;1.45;;;;;;;1.03;100.00;100135.66;6021429;23;20282;-92
2023/01/13 06:47:35;;;;;;;0.20;0.20;;;;;;;1.04;100.00;100129.03;5993717;23;20018;-95
2023/01/13 06:50:01;;;;;;;2.58;2.17;;;;;;;1.08;100.00;100135.34;6018282;23;20345;-92
2023/01/13 06:52:29;;;;;;;7.78;2.08;;;;;;;1.04;100.00;100129.03;5993572;23;20038;-91
2023/01/13 06:54:56;;;;;;;1.35;1.05;;;;;;;0.99;100.00;100121.16;5995334;23;20099;-93
2023/01/13 06:57:22;;;;;;;0.28;0.28;;;;;;;0.76;100.00;100086.56;5994831;23;20010;-92
2023/01/13 06:59:50;;;;;;;0.75;0.75;;;;;;;1.00;100.00;100125.47;5994326;23;20022;-94
2023/01/13 07:02:16;;;;;;;0.70;0.45;;;;;;;1.03;100.00;100133.72;5995425;23;20015;-91
2023/01/13 07:04:43;;;;;;;0.55;0.52;;;;;;;0.78;100.00;100099.81;5993440;23;20015;-92
2023/01/13 07:07:09;;;;;;;2.88;2.13;;;;;;;0.92;100.00;100122.66;5993842;23;20078;-92
2023/01/13 07:09:34;;;;;;;0.93;0.85;;;;;;;1.02;100.00;100136.81;5994076;23;20015;-93
2023/01/13 07:12:00;;;;;;;2.50;1.95;;;;;;;0.80;100.00;100103.75;5994003;23;20351;-91
2023/01/13 07:17:13;;;;;;;0.28;0.28;;;;;;;1.08;100.00;100149.78;6020931;23;20011;-93
2023/01/13 07:19:39;;;;;;;3.47;1.08;;;;;;;0.99;100.00;100143.00;5994803;23;20125;-94
2023/01/13 07:22:04;;;;;;;0.28;0.28;;;;;;;0.81;100.00;100110.03;5994049;23;20002;-91
2023/01/13 07:24:30;;;;;;;1.30;1.20;;;;;;;0.87;100.00;100103.84;5971207;23;20400;-93
2023/01/13 07:26:56;;;;;;;0.52;0.52;;;;;;;0.89;100.00;100106.22;5993609;23;20014;-91
2023/01/13 07:29:22;;;;;;;0.65;0.65;;;;;;;1.15;100.00;100136.22;5992975;23;20468;-91
2023/01/13 07:31:48;;;;;;;0.43;0.43;;;;;;;1.08;100.00;100105.28;5991740;23;20019;-91
2023/01/13 07:34:13;;;;;;;0.45;0.35;;;;;;;1.14;100.00;100101.06;5970025;23;20023;-93
2023/01/13 07:36:39;;;;;;;0.40;0.40;;;;;;;1.40;100.00;100106.44;5993386;23;20015;-91
2023/01/13 07:39:05;;;;;;;0.43;0.43;;;;;;;1.31;100.00;100073.16;5992886;23;20034;-92
2023/01/13 07:44:15;;;;;;;1.13;0.68;;;;;;;1.60;100.00;100069.56;6021239;23;20003;-94
2023/01/13 07:46:41;;;;;;;1.30;1.05;;;;;;;1.75;100.00;100087.66;5994448;23;20014;-94
2023/01/13 07:49:10;;;;;;;1.20;1.10;;;;;;;1.83;100.00;100097.50;5994558;23;20119;-91
2023/01/13 07:51:39;;;;;;;0.20;0.20;;;;;;;2.03;100.00;100098.06;5992165;23;20023;-91
2023/01/13 07:54:07;;;;;;;0.15;0.15;;;;;;;2.15;100.00;100088.78;5994610;23;20011;-91
2023/01/13 07:56:32;;;;;;;0.93;0.93;;;;;;;2.14;100.00;100088.03;5993965;23;20007;-91
2023/01/13 07:58:59;;;;;;;0.95;0.95;;;;;;;2.22;100.00;100105.28;5993809;23;20093;-92
2023/01/13 08:01:26;;;;;;;0.52;0.50;;;;;;;2.27;100.00;100096.69;5993089;23;20094;-92
2023/01/13 08:03:53;;;;;;;1.50;1.23;;;;;;;2.36;100.00;100127.28;6015878;23;20478;-92
2023/01/13 08:06:18;;;;;;;0.17;0.17;;;;;;;2.60;100.00;100137.63;5982673;23;20158;-92
2023/01/13 08:08:44;;;;;;;0.65;0.63;;;;;;;2.49;100.00;100127.75;6033663;23;20452;-93
2023/01/13 08:11:09;;;;;;;3.97;2.08;;;;;;;2.54;100.00;100125.47;6016145;23;20465;-93
2023/01/13 08:13:35;;;;;;;2.00;0.95;;;;;;;2.71;100.00;100154.91;6040852;23;20447;-92
2023/01/13 08:16:06;;;;;;;0.50;0.50;;;;;;;2.66;100.00;100168.97;6016077;23;20014;-93
2023/01/13 08:18:33;;;;;;;0.32;0.32;;;;;;;2.22;100.00;100138.13;5993525;23;20140;-92
2023/01/13 08:21:04;;;;;;;1.55;1.17;;;;;;;2.21;100.00;100142.03;6015264;23;20034;-92
2023/01/13 08:23:30;;;;;;;0.63;0.63;;;;;;;2.28;100.00;100163.97;5993344;23;20022;-93
2023/01/13 08:26:16;;;;;;;0.77;0.60;;;;;;;2.16;100.00;100142.38;5993382;23;20014;-93
2023/01/13 08:28:41;;;;;;;1.55;1.25;;;;;;;2.26;100.00;100158.09;5993756;23;20015;-92
2023/01/13 08:31:12;;;;;;;0.40;0.40;;;;;;;2.36;100.00;100173.81;5993830;23;20154;-93
2023/01/13 08:33:39;;;;;;;0.20;0.20;;;;;;;2.30;100.00;100158.91;5993434;23;20014;-93
2023/01/13 08:36:06;;;;;;;0.98;0.98;;;;;;;2.32;100.00;100140.16;5993770;23;20011;-92
2023/01/13 08:38:33;;;;;;;1.08;1.08;;;;;;;2.43;100.00;100154.69;5993706;23;20019;-92
2023/01/13 08:40:59;;;;;;;1.80;1.45;;;;;;;2.40;100.00;100150.00;6017027;23;20229;-92
2023/01/13 08:43:25;;;;;;;1.10;1.10;;;;;;;2.58;100.00;100161.88;6016983;23;20487;-93
2023/01/13 08:45:58;;;;;;;0.75;0.75;;;;;;;2.48;100.00;100151.63;5993910;23;20042;-94
2023/01/13 08:48:24;;;;;;;1.88;1.13;;;;;;;2.36;100.00;100138.22;6016481;23;20352;-93
2023/01/13 08:50:50;;;;;;;1.90;1.05;;;;;;;2.57;100.00;100186.91;6016724;23;20034;-92
2023/01/13 08:53:17;;;;;;;0.10;0.10;;;;;;;2.59;100.00;100174.38;5993803;23;20086;-92
2023/01/13 08:55:42;;;;;;;0.52;0.52;;;;;;;2.45;100.00;100174.28;6016860;23;19999;-93
2023/01/13 08:58:08;;;;;;;0.20;0.20;;;;;;;2.26;100.00;100142.47;6017035;23;20042;-93
2023/01/13 09:00:34;;;;;;;0.88;0.82;;;;;;;2.35;100.00;100153.06;6040528;23;20015;-92
2023/01/13 09:02:59;;;;;;;0.55;0.55;;;;;;;2.28;100.00;100153.03;5994104;23;20022;-93
2023/01/13 09:05:25;;;;;;;0.57;0.57;;;;;;;2.46;100.00;100180.56;6016722;23;20440;-93
2023/01/13 09:07:51;;;;;;;0.95;0.95;;;;;;;2.48;100.00;100184.47;6017361;23;20025;-92
2023/01/13 09:10:16;;;;;;;0.65;0.65;;;;;;;2.46;100.00;100169.59;6016569;23;20002;-93
2023/01/13 09:15:26;;;;;;;0.60;0.55;;;;;;;2.56;100.00;100169.69;6044457;23;20301;-91
2023/01/13 09:17:51;;;;;;;0.10;0.10;;;;;;;2.67;100.00;100186.97;6045143;23;20014;-92
2023/01/13 09:20:17;;;;;;;1.15;1.02;;;;;;;2.61;100.00;100161.13;6039096;23;20101;-93
2023/01/13 09:22:43;;;;;;;0.30;0.30;;;;;;;2.57;100.00;100165.00;6044708;23;20002;-93
2023/01/13 09:25:09;;;;;;;0.40;0.40;;;;;;;2.64;100.00;100171.31;6039632;23;20042;-92
2023/01/13 09:27:34;;;;;;;1.27;0.75;;;;;;;2.77;100.00;100180.78;6016427;23;20015;-92
2023/01/13 09:30:00;;;;;;;0.20;0.20;;;;;;;2.83;100.00;100189.44;5993696;23;20499;-93
2023/01/13 09:32:26;;;;;;;1.02;0.77;;;;;;;2.72;100.00;100156.50;6016931;23;20034;-93
2023/01/13 09:35:01;;;;;;;0.22;0.22;;;;;;;2.87;100.00;100168.34;6017086;23;20003;-93
2023/01/13 09:37:35;;;;;;;0.75;0.73;;;;;;;2.86;100.00;100161.28;6040151;23;20014;-94
2023/01/13 09:40:14;;;;;;;0.65;0.65;;;;;;;2.95;100.00;100163.69;6041243;23;20022;-95
2023/01/13 09:45:59;;;;;;;0.73;0.73;;;;;;;2.99;100.00;100146.09;6039866;23;20046;-94
2023/01/13 09:48:32;;;;;;;0.75;0.75;;;;;;;3.11;100.00;100155.94;6016384;23;20026;-93
2023/01/13 09:51:05;;;;;;;0.73;0.33;;;;;;;3.00;100.00;100139.44;6040791;23;20082;-93
2023/01/13 09:53:32;;;;;;;;;;;;;;;3.25;100.00;100172.44;6017655;23;20042;-92
2023/01/13 09:55:57;;;;;;;1.60;0.77;;;;;;;3.01;100.00;100123.78;6016846;23;20353;-93
2023/01/13 09:58:23;;;;;;;0.65;0.65;;;;;;;2.96;100.00;100110.44;6016495;23;20021;-93
2023/01/13 10:01:00;;;;;;;0.88;0.88;;;;;;;3.24;100.00;100143.47;6018408;23;20014;-92
2023/01/13 10:03:33;;;;;;;1.85;1.75;;;;;;;2.97;100.00;100090.88;6018459;23;20101;-93
2023/01/13 10:06:25;;;;;;;0.80;0.80;;;;;;;3.28;100.00;100122.34;6021374;23;20426;-94
2023/01/13 10:08:53;;;;;;;1.23;1.17;;;;;;;3.32;100.00;100117.66;6016792;23;20034;-93
2023/01/13 10:14:22;;;;;;;0.10;0.10;;;;;;;3.66;100.00;100129.13;6046112;23;20017;-93
2023/01/13 10:17:25;;;;;;;1.98;1.80;;;;;;;3.74;100.00;100117.78;6018817;23;20019;-92
2023/01/13 10:20:19;;;;;;;0.70;0.57;;;;;;;3.84;100.00;100126.44;6041906;23;20460;-93
2023/01/13 10:22:53;;;;;;;;;;;;;;;3.93;100.00;100113.09;5996435;23;20015;-93
2023/01/13 10:25:25;;;;;;;0.30;0.30;;;;;;;4.07;100.00;100121.34;6067218;23;19913;-94
2023/01/13 10:28:00;;;;;;;0.35;0.35;;;;;;;4.03;100.00;100082.16;6068255;23;20030;-92
2023/01/13 10:30:41;;;;;;;;;;;;;;;;;;;;;
2023/01/13 10:33:32;;;;;;;0.30;0.30;;;;;;;4.58;100.00;100099.75;6042534;23;20455;-92
2023/01/13 10:36:01;;;;;;;1.23;0.95;;;;;;;4.81;100.00;100095.81;5996572;23;20019;-94
2023/01/13 10:38:28;;;;;;;0.73;0.73;;;;;;;4.83;100.00;100087.94;6018855;23;20093;-95
2023/01/13 10:40:57;;;;;;;1.35;1.25;;;;;;;4.67;100.00;100045.19;5995185;23;20014;-94
2023/01/13 10:43:26;;;;;;;1.45;1.10;;;;;;;4.96;100.00;100059.63;5995529;23;20023;-95
2023/01/13 10:46:18;;;;;;;0.55;0.55;;;;;;;5.22;100.00;100072.06;6018001;23;20011;-96
2023/01/13 10:49:35;;;;;;;0.32;0.32;;;;;;;4.89;100.00;100028.63;6013059;23;20020;-94
2023/01/13 10:52:27;;;;;;;1.88;1.77;;;;;;;4.72;100.00;100026.72;5920699;24;20536;-95
2023/01/13 10:54:57;;;;;;;1.13;1.02;;;;;;;4.67;100.00;100031.44;6029948;23;20019;-95
2023/01/13 10:57:37;;;;;;;0.30;0.30;;;;;;;4.66;100.00;100035.38;6002871;23;20007;-95
2023/01/13 11:00:35;;;;;;;2.55;2.08;;;;;;;4.82;100.00;100045.13;5980436;23;20022;-94
2023/01/13 11:03:47;;;;;;;0.80;0.80;;;;;;;4.90;100.00;100046.66;5977281;23;20025;-95
2023/01/13 11:06:50;;;;;;;0.30;0.30;;;;;;;4.87;100.00;100022.75;5978152;23;20019;-94
2023/01/13 11:09:47;;;;;;;0.43;0.43;;;;;;;4.95;100.00;100016.03;5989327;23;20019;-94
2023/01/13 11:12:46;;;;;;;;;;;;;;;;;;;;;
2023/01/13 11:15:27;;;;;;;0.30;0.30;;;;;;;5.34;100.00;100010.34;6041211;23;20053;-95
2023/01/13 11:21:41;;;;;;;;;;;;;;;;;;;;;
2023/01/13 11:31:33;;;;;;;1.05;1.02;;;;;;;6.49;100.00;99994.06;6019202;23;20019;-94
2023/01/13 11:34:34;;;;;;;0.47;0.47;;;;;;;6.50;100.00;99962.56;5979003;23;20011;-94
2023/01/13 11:37:09;;;;;;;0.28;0.28;;;;;;;6.81;100.00;99968.88;5972588;23;20011;-94
2023/01/13 11:40:05;;;;;;;;;;;;;;;;;;;;;
2023/01/13 11:43:00;;;;;;;0.38;0.38;;;;;;;6.54;100.00;99962.50;5998510;23;20023;-95
2023/01/13 11:45:29;;;;;;;0.57;0.57;;;;;;;6.55;100.00;99975.84;5969660;23;20054;-94
2023/01/13 11:47:59;;;;;;;1.75;0.68;;;;;;;6.38;100.00;99929.25;5993136;23;20087;-94
2023/01/13 11:51:00;;;;;;;;;;;;;;;;;;;;;
2023/01/13 11:54:11;;;;;;;0.20;0.20;;;;;;;6.83;100.00;99971.22;6040741;23;20029;-95
2023/01/13 11:57:11;;;;;;;0.35;0.35;;;;;;;6.57;100.00;99967.97;6001899;23;20016;-96
2023/01/13 11:59:55;;;;;;;0.25;0.25;;;;;;;6.49;100.00;99966.50;6013171;23;20339;-94
2023/01/13 12:02:53;;;;;;;0.47;0.47;;;;;;;6.50;100.00;99973.56;6022758;23;20098;-94
2023/01/13 12:05:39;;;;;;;0.68;0.50;;;;;;;6.24;100.00;99937.66;6023436;23;20094;-95
2023/01/13 12:08:19;;;;;;;2.35;1.42;;;;;;;6.62;100.00;99979.75;5997861;23;20022;-94
2023/01/13 12:11:05;;;;;;;0.38;0.38;;;;;;;6.83;100.00;99979.50;5997670;23;20043;-93
2023/01/13 12:13:58;;;;;;;0.20;0.20;;;;;;;6.91;100.00;99969.94;6020544;23;20022;-95
2023/01/13 12:16:35;;;;;;;0.85;0.77;;;;;;;6.86;100.00;99940.06;6019721;23;20026;-94
2023/01/13 12:19:19;;;;;;;0.10;0.10;;;;;;;7.03;100.00;99978.44;6024193;23;20133;-94
2023/01/13 12:22:36;;;;;;;3.50;1.08;;;;;;;7.01;100.00;99980.03;5997318;23;20025;-95
2023/01/13 12:25:25;;;;;;;1.65;0.65;;;;;;;6.91;100.00;99942.38;6020266;23;20107;-95
2023/01/13 12:28:08;;;;;;;0.57;0.35;;;;;;;6.74;100.00;99927.63;5999095;23;20018;-94
2023/01/13 12:31:18;;;;;;;0.45;0.43;;;;;;;6.78;100.00;99933.88;6006126;23;20015;-93
2023/01/13 12:33:59;;;;;;;;;;;;;;;6.95;100.00;99962.41;6015451;23;20015;-95
2023/01/13 12:40:42;;;;;;;0.95;0.55;;;;;;;6.86;100.00;99973.94;6031888;23;20041;-95
2023/01/13 12:46:24;;;;;;;0.15;0.13;;;;;;;6.83;100.00;99968.47;6024315;23;20014;-95
2023/01/13 12:48:58;;;;;;;0.65;0.63;;;;;;;6.73;100.00;99966.59;6007733;23;20019;-96
2023/01/13 12:51:33;;;;;;;0.10;0.10;;;;;;;6.49;100.00;99914.13;6021534;23;20353;-95
2023/01/13 12:54:28;;;;;;;3.03;0.77;;;;;;;6.46;100.00;99914.97;6021320;23;20126;-95
2023/01/13 12:56:54;;;;;;;3.75;0.70;;;;;;;6.47;100.00;99913.00;6021934;23;20022;-95